logo
Search for airport 
image banner adimage banner adimage banner ad
image banner ad

LKHART - Slezska Harta

Located in Bruntál, Czech Republic

ICAO - , IATA -

Data provided by Airmate  

General information

Coordinates: N49°54'32" E17°32'9"
Elevation is 1677 feet MSL.
 
View others Airports in Moravian-Silesian Region

Operational data

Special qualification required
Current time UTC:
Current local time:
Weather at : LKMT - Ostrava/Mosnov ( 48 km )
METAR: LKMT 200630Z 21011KT 9999 -RA SCT008 BKN016 05/03 Q1006 NOSIG
TAF: TAF LKMT 200500Z 2006/2106 20007KT 9999 OVC017 TEMPO 2006/2018 22011KT 7000 RA OVC009 PROB30 TEMPO 2010/2016 3000 SHRA BKN008CB BECMG 2018/2020 36015G25KT
View NOTAMs / SUP AIP / TFR affecting this airport [VIEW]
Communications frequencies: [VIEW]

Runways:

RWY identifierQFULength (ft)Width (ft)SurfaceLDA (ft)
12124°147649GRASS1476
30304°147649GRASS1476

Airport contact information

Address: Bruntál Czech Republic

Satellite view of LKHART